VCP8PH EPKK-EDDH
Flight info
| Callsign | VCP8PH |
|---|---|
| Flight time | 1h 19m |
| Altitude | 36000 |
| Route | OMFOL T738 LASIS L986 BOLBO DCT ESIKA DCT SOGMA M748 RARUP RARUP6A |
| Aircraft | A320/M-SDE3FGHIRWY/LB1 |
Departure
| Time | 2026-05-07 18:27 |
|---|---|
| Airport | Kraków John Paul II International Airport (EPKK) |
Arrival
| Time | 2026-05-07 19:46 |
|---|---|
| Airport | Hamburg Helmut Schmidt Airport (EDDH) |
| Time | Latitude | Longitude | Altitude | Speed | Heading |
|---|---|---|---|---|---|
| 2026-05-07 17:55 | 50.07358 | 19.80243 | 800 ft | 0 kts | 168° |
| 2026-05-07 18:14 | 50.07366 | 19.80240 | 800 ft | 4 kts | 168° |
| 2026-05-07 18:15 | 50.07391 | 19.80232 | 800 ft | 4 kts | 168° |
| 2026-05-07 18:15 | 50.07410 | 19.80225 | 800 ft | 4 kts | 148° |
| 2026-05-07 18:15 | 50.07422 | 19.80200 | 800 ft | 4 kts | 87° |
| 2026-05-07 18:15 | 50.07419 | 19.80168 | 800 ft | 1 kts | 77° |
| 2026-05-07 18:16 | 50.07419 | 19.80167 | 800 ft | 0 kts | 77° |
| 2026-05-07 18:19 | 50.07419 | 19.80169 | 800 ft | 2 kts | 77° |
| 2026-05-07 18:19 | 50.07428 | 19.80235 | 800 ft | 9 kts | 77° |
| 2026-05-07 18:19 | 50.07439 | 19.80309 | 800 ft | 4 kts | 77° |
| 2026-05-07 18:19 | 50.07444 | 19.80341 | 800 ft | 2 kts | 71° |
| 2026-05-07 18:20 | 50.07459 | 19.80366 | 800 ft | 0 kts | 41° |
| 2026-05-07 18:20 | 50.07474 | 19.80379 | 800 ft | 7 kts | 22° |
| 2026-05-07 18:21 | 50.07518 | 19.80400 | 800 ft | 5 kts | 17° |
| 2026-05-07 18:21 | 50.07546 | 19.80413 | 800 ft | 5 kts | 17° |
| 2026-05-07 18:21 | 50.07593 | 19.80421 | 800 ft | 7 kts | 348° |
| 2026-05-07 18:21 | 50.07633 | 19.80407 | 800 ft | 5 kts | 348° |
| 2026-05-07 18:22 | 50.07660 | 19.80398 | 800 ft | 3 kts | 348° |
| 2026-05-07 18:22 | 50.07673 | 19.80394 | 800 ft | 3 kts | 348° |
| 2026-05-07 18:22 | 50.07718 | 19.80379 | 800 ft | 5 kts | 347° |
| 2026-05-07 18:22 | 50.07751 | 19.80368 | 800 ft | 5 kts | 347° |
| 2026-05-07 18:23 | 50.07779 | 19.80358 | 800 ft | 4 kts | 348° |
| 2026-05-07 18:23 | 50.07821 | 19.80344 | 800 ft | 7 kts | 348° |
| 2026-05-07 18:23 | 50.07843 | 19.80337 | 800 ft | 0 kts | 348° |
| 2026-05-07 18:25 | 50.07845 | 19.80336 | 800 ft | 3 kts | 348° |
| 2026-05-07 18:25 | 50.07907 | 19.80315 | 800 ft | 13 kts | 347° |
| 2026-05-07 18:25 | 50.07990 | 19.80287 | 799 ft | 12 kts | 348° |
| 2026-05-07 18:25 | 50.08015 | 19.80222 | 800 ft | 5 kts | 258° |
| 2026-05-07 18:26 | 50.08015 | 19.80220 | 800 ft | 0 kts | 258° |
| 2026-05-07 18:26 | 50.08011 | 19.80194 | 800 ft | 14 kts | 258° |
| 2026-05-07 18:26 | 50.07930 | 19.79615 | 801 ft | 92 kts | 257° |
| 2026-05-07 18:27 | 50.07751 | 19.78323 | 802 ft | 150 kts | 258° |
| 2026-05-07 18:27 | 50.07509 | 19.76608 | 1246 ft | 164 kts | 256° |
| 2026-05-07 18:27 | 50.07277 | 19.74880 | 2051 ft | 161 kts | 258° |
| 2026-05-07 18:27 | 50.07047 | 19.73166 | 2784 ft | 162 kts | 258° |
| 2026-05-07 18:28 | 50.06806 | 19.71464 | 3505 ft | 160 kts | 258° |
| 2026-05-07 18:28 | 50.06692 | 19.69737 | 4138 ft | 166 kts | 277° |
| 2026-05-07 18:28 | 50.07112 | 19.67942 | 4462 ft | 187 kts | 290° |
| 2026-05-07 18:28 | 50.07578 | 19.65922 | 4751 ft | 212 kts | 287° |
| 2026-05-07 18:29 | 50.08053 | 19.63608 | 5175 ft | 236 kts | 286° |
| 2026-05-07 18:29 | 50.08565 | 19.61051 | 5705 ft | 256 kts | 286° |
| 2026-05-07 18:29 | 50.09110 | 19.58362 | 6582 ft | 263 kts | 286° |
| 2026-05-07 18:29 | 50.09679 | 19.55639 | 7503 ft | 266 kts | 287° |
| 2026-05-07 18:30 | 50.10269 | 19.52880 | 8404 ft | 271 kts | 286° |
| 2026-05-07 18:30 | 50.10860 | 19.50076 | 9343 ft | 274 kts | 286° |
| 2026-05-07 18:30 | 50.11466 | 19.47227 | 10150 ft | 281 kts | 286° |
| 2026-05-07 18:30 | 50.12109 | 19.44215 | 10529 ft | 304 kts | 286° |
| 2026-05-07 18:31 | 50.12786 | 19.40994 | 11022 ft | 319 kts | 285° |
| 2026-05-07 18:31 | 50.13482 | 19.37659 | 11738 ft | 327 kts | 285° |
| 2026-05-07 18:31 | 50.14206 | 19.34270 | 12558 ft | 331 kts | 285° |
| 2026-05-07 18:31 | 50.14929 | 19.30853 | 13396 ft | 334 kts | 285° |
| 2026-05-07 18:32 | 50.15659 | 19.27385 | 14083 ft | 340 kts | 285° |
| 2026-05-07 18:32 | 50.16401 | 19.23857 | 14744 ft | 345 kts | 284° |
| 2026-05-07 18:32 | 50.17150 | 19.20281 | 15434 ft | 348 kts | 284° |
| 2026-05-07 18:32 | 50.17900 | 19.16673 | 16129 ft | 352 kts | 284° |
| 2026-05-07 18:33 | 50.18657 | 19.13029 | 16842 ft | 355 kts | 284° |
| 2026-05-07 18:33 | 50.19424 | 19.09341 | 17527 ft | 359 kts | 285° |
| 2026-05-07 18:33 | 50.20198 | 19.05620 | 18203 ft | 363 kts | 285° |
| 2026-05-07 18:33 | 50.20981 | 19.01858 | 18797 ft | 366 kts | 284° |
| 2026-05-07 18:34 | 50.21771 | 18.98061 | 19374 ft | 370 kts | 284° |
| 2026-05-07 18:34 | 50.22568 | 18.94222 | 19939 ft | 373 kts | 284° |
| 2026-05-07 18:34 | 50.23371 | 18.90342 | 20500 ft | 377 kts | 283° |
| 2026-05-07 18:34 | 50.24178 | 18.86427 | 21058 ft | 381 kts | 283° |
| 2026-05-07 18:35 | 50.24989 | 18.82470 | 21601 ft | 384 kts | 282° |
| 2026-05-07 18:35 | 50.25796 | 18.78527 | 22135 ft | 388 kts | 282° |
| 2026-05-07 18:35 | 50.26619 | 18.74492 | 22671 ft | 391 kts | 282° |
| 2026-05-07 18:35 | 50.27446 | 18.70424 | 23237 ft | 395 kts | 281° |
| 2026-05-07 18:36 | 50.28280 | 18.66323 | 23739 ft | 397 kts | 281° |
| 2026-05-07 18:36 | 50.29204 | 18.62218 | 24162 ft | 406 kts | 289° |
| 2026-05-07 18:36 | 50.30492 | 18.58248 | 24579 ft | 411 kts | 291° |
| 2026-05-07 18:36 | 50.31807 | 18.54264 | 25006 ft | 414 kts | 291° |
| 2026-05-07 18:37 | 50.33137 | 18.50250 | 25425 ft | 417 kts | 291° |
| 2026-05-07 18:37 | 50.34476 | 18.46210 | 25837 ft | 420 kts | 290° |
| 2026-05-07 18:37 | 50.35825 | 18.42135 | 26223 ft | 423 kts | 290° |
| 2026-05-07 18:37 | 50.37180 | 18.38025 | 26608 ft | 426 kts | 290° |
| 2026-05-07 18:38 | 50.38539 | 18.33886 | 27000 ft | 429 kts | 290° |
| 2026-05-07 18:38 | 50.39904 | 18.29711 | 27383 ft | 432 kts | 290° |
| 2026-05-07 18:38 | 50.41278 | 18.25499 | 27761 ft | 435 kts | 290° |
| 2026-05-07 18:38 | 50.42665 | 18.21252 | 28150 ft | 438 kts | 290° |
| 2026-05-07 18:39 | 50.44058 | 18.16984 | 28530 ft | 442 kts | 290° |
| 2026-05-07 18:39 | 50.45460 | 18.12676 | 28901 ft | 445 kts | 290° |
| 2026-05-07 18:39 | 50.46870 | 18.08335 | 29264 ft | 448 kts | 290° |
| 2026-05-07 18:39 | 50.48287 | 18.03967 | 29635 ft | 451 kts | 290° |
| 2026-05-07 18:40 | 50.49712 | 17.99567 | 29987 ft | 454 kts | 290° |
| 2026-05-07 18:40 | 50.51146 | 17.95133 | 30284 ft | 456 kts | 290° |
| 2026-05-07 18:40 | 50.52588 | 17.90674 | 30653 ft | 458 kts | 290° |
| 2026-05-07 18:40 | 50.54029 | 17.86207 | 30972 ft | 459 kts | 290° |
| 2026-05-07 18:41 | 50.55466 | 17.81710 | 31283 ft | 460 kts | 289° |
| 2026-05-07 18:41 | 50.56897 | 17.77190 | 31573 ft | 462 kts | 289° |
| 2026-05-07 18:41 | 50.58325 | 17.72663 | 31933 ft | 462 kts | 289° |
| 2026-05-07 18:41 | 50.59747 | 17.68143 | 32350 ft | 460 kts | 289° |
| 2026-05-07 18:42 | 50.61165 | 17.63632 | 32755 ft | 459 kts | 289° |
| 2026-05-07 18:42 | 50.62563 | 17.59185 | 33151 ft | 458 kts | 289° |
| 2026-05-07 18:42 | 50.63976 | 17.54688 | 33566 ft | 457 kts | 289° |
| 2026-05-07 18:42 | 50.65385 | 17.50203 | 34013 ft | 457 kts | 290° |
| 2026-05-07 18:43 | 50.66791 | 17.45713 | 34304 ft | 457 kts | 290° |
| 2026-05-07 18:43 | 50.68192 | 17.41223 | 34625 ft | 456 kts | 290° |
| 2026-05-07 18:43 | 50.69590 | 17.36731 | 34973 ft | 455 kts | 290° |
| 2026-05-07 18:43 | 50.70984 | 17.32260 | 35316 ft | 453 kts | 291° |
| 2026-05-07 18:44 | 50.72370 | 17.27808 | 35654 ft | 451 kts | 291° |
| 2026-05-07 18:44 | 50.73749 | 17.23367 | 35946 ft | 451 kts | 291° |
| 2026-05-07 18:44 | 50.75122 | 17.18942 | 36029 ft | 446 kts | 291° |
| 2026-05-07 18:45 | 50.77829 | 17.10189 | 36031 ft | 441 kts | 291° |
| 2026-05-07 18:45 | 50.80499 | 17.01489 | 36031 ft | 439 kts | 291° |
| 2026-05-07 18:46 | 50.83156 | 16.92807 | 36037 ft | 438 kts | 291° |
| 2026-05-07 18:46 | 50.85809 | 16.84128 | 36023 ft | 438 kts | 291° |
| 2026-05-07 18:47 | 50.88461 | 16.75441 | 36031 ft | 438 kts | 291° |
| 2026-05-07 18:47 | 50.91099 | 16.66744 | 36052 ft | 438 kts | 291° |
| 2026-05-07 18:48 | 50.93727 | 16.58034 | 36051 ft | 438 kts | 291° |
| 2026-05-07 18:48 | 50.96330 | 16.49387 | 36049 ft | 437 kts | 291° |
| 2026-05-07 18:49 | 50.98942 | 16.40674 | 36049 ft | 437 kts | 291° |
| 2026-05-07 18:49 | 51.01546 | 16.31961 | 36046 ft | 437 kts | 291° |
| 2026-05-07 18:50 | 51.04144 | 16.23231 | 36065 ft | 437 kts | 291° |
| 2026-05-07 18:50 | 51.06738 | 16.14493 | 36058 ft | 437 kts | 291° |
| 2026-05-07 18:51 | 51.09332 | 16.05747 | 36052 ft | 437 kts | 291° |
| 2026-05-07 18:51 | 51.11916 | 15.96986 | 36050 ft | 437 kts | 291° |
| 2026-05-07 18:52 | 51.14495 | 15.88212 | 36052 ft | 437 kts | 291° |
| 2026-05-07 18:52 | 51.17059 | 15.79427 | 36062 ft | 437 kts | 292° |
| 2026-05-07 18:53 | 51.19602 | 15.70683 | 36059 ft | 437 kts | 292° |
| 2026-05-07 18:53 | 51.22156 | 15.61892 | 36055 ft | 437 kts | 291° |
| 2026-05-07 18:54 | 51.24272 | 15.54511 | 36059 ft | 436 kts | 291° |
| 2026-05-07 18:54 | 51.26779 | 15.45692 | 36058 ft | 437 kts | 291° |
| 2026-05-07 18:55 | 51.29263 | 15.36908 | 36078 ft | 437 kts | 291° |
| 2026-05-07 18:55 | 51.31760 | 15.28060 | 36072 ft | 437 kts | 291° |
| 2026-05-07 18:56 | 51.34257 | 15.19201 | 36067 ft | 437 kts | 291° |
| 2026-05-07 18:56 | 51.36749 | 15.10332 | 36065 ft | 437 kts | 291° |
| 2026-05-07 18:57 | 51.39228 | 15.01452 | 36067 ft | 437 kts | 291° |
| 2026-05-07 18:57 | 51.41288 | 14.92344 | 36081 ft | 434 kts | 282° |
| 2026-05-07 18:58 | 51.42710 | 14.82952 | 36082 ft | 434 kts | 282° |
| 2026-05-07 18:58 | 51.44135 | 14.73560 | 36080 ft | 434 kts | 282° |
| 2026-05-07 18:59 | 51.45554 | 14.64173 | 36080 ft | 433 kts | 282° |
| 2026-05-07 18:59 | 51.47113 | 14.54835 | 36076 ft | 435 kts | 291° |
| 2026-05-07 18:59 | 51.48653 | 14.50661 | 36084 ft | 438 kts | 308° |
| 2026-05-07 19:00 | 51.50810 | 14.47194 | 36080 ft | 439 kts | 315° |
| 2026-05-07 19:00 | 51.55337 | 14.40589 | 36075 ft | 440 kts | 316° |
| 2026-05-07 19:01 | 51.59849 | 14.33931 | 36073 ft | 440 kts | 314° |
| 2026-05-07 19:01 | 51.64132 | 14.26909 | 36070 ft | 440 kts | 311° |
| 2026-05-07 19:02 | 51.68288 | 14.19765 | 36075 ft | 440 kts | 311° |
| 2026-05-07 19:02 | 51.72503 | 14.12608 | 36076 ft | 440 kts | 312° |
| 2026-05-07 19:03 | 51.76763 | 14.05485 | 36083 ft | 441 kts | 312° |
| 2026-05-07 19:03 | 51.81018 | 13.98364 | 36083 ft | 440 kts | 312° |
| 2026-05-07 19:04 | 51.85270 | 13.91219 | 36087 ft | 440 kts | 312° |
| 2026-05-07 19:04 | 51.89509 | 13.84062 | 36089 ft | 441 kts | 311° |
| 2026-05-07 19:05 | 51.93743 | 13.76873 | 36102 ft | 440 kts | 312° |
| 2026-05-07 19:05 | 51.97946 | 13.69729 | 36110 ft | 440 kts | 312° |
| 2026-05-07 19:06 | 52.02165 | 13.62548 | 36109 ft | 440 kts | 312° |
| 2026-05-07 19:06 | 52.08477 | 13.51743 | 36106 ft | 439 kts | 312° |
| 2026-05-07 19:07 | 52.12680 | 13.44524 | 36113 ft | 439 kts | 311° |
| 2026-05-07 19:07 | 52.16874 | 13.37298 | 36119 ft | 439 kts | 312° |
| 2026-05-07 19:08 | 52.21067 | 13.30057 | 36120 ft | 439 kts | 312° |
| 2026-05-07 19:08 | 52.25253 | 13.22799 | 36121 ft | 439 kts | 312° |
| 2026-05-07 19:09 | 52.29427 | 13.15533 | 36118 ft | 439 kts | 312° |
| 2026-05-07 19:09 | 52.33598 | 13.08254 | 36113 ft | 439 kts | 312° |
| 2026-05-07 19:10 | 52.37767 | 13.00975 | 36115 ft | 439 kts | 312° |
| 2026-05-07 19:10 | 52.41940 | 12.93674 | 36119 ft | 438 kts | 312° |
| 2026-05-07 19:11 | 52.46065 | 12.86408 | 36117 ft | 438 kts | 311° |
| 2026-05-07 19:11 | 52.50210 | 12.79090 | 36117 ft | 438 kts | 311° |
| 2026-05-07 19:12 | 52.54350 | 12.71769 | 36117 ft | 437 kts | 311° |
| 2026-05-07 19:12 | 52.58477 | 12.64438 | 36113 ft | 437 kts | 311° |
| 2026-05-07 19:13 | 52.62602 | 12.57099 | 36113 ft | 437 kts | 311° |
| 2026-05-07 19:13 | 52.66733 | 12.49738 | 36113 ft | 437 kts | 311° |
| 2026-05-07 19:14 | 52.70829 | 12.42409 | 36049 ft | 438 kts | 311° |
| 2026-05-07 19:14 | 52.72889 | 12.38712 | 35797 ft | 437 kts | 311° |
| 2026-05-07 19:14 | 52.74947 | 12.35017 | 35555 ft | 437 kts | 311° |
| 2026-05-07 19:15 | 52.76992 | 12.31341 | 35121 ft | 433 kts | 311° |
| 2026-05-07 19:15 | 52.79026 | 12.27672 | 34574 ft | 431 kts | 311° |
| 2026-05-07 19:15 | 52.81043 | 12.24027 | 34007 ft | 429 kts | 311° |
| 2026-05-07 19:15 | 52.83047 | 12.20401 | 33441 ft | 425 kts | 312° |
| 2026-05-07 19:16 | 52.85032 | 12.16808 | 32913 ft | 421 kts | 311° |
| 2026-05-07 19:16 | 52.86994 | 12.13246 | 32380 ft | 417 kts | 311° |
| 2026-05-07 19:16 | 52.88942 | 12.09708 | 31839 ft | 414 kts | 311° |
| 2026-05-07 19:16 | 52.90870 | 12.06204 | 31330 ft | 410 kts | 311° |
| 2026-05-07 19:17 | 52.92783 | 12.02727 | 30821 ft | 407 kts | 311° |
| 2026-05-07 19:17 | 52.94680 | 11.99265 | 30310 ft | 404 kts | 311° |
| 2026-05-07 19:17 | 52.96561 | 11.95823 | 29761 ft | 401 kts | 311° |
| 2026-05-07 19:17 | 52.98422 | 11.92416 | 29265 ft | 395 kts | 311° |
| 2026-05-07 19:18 | 53.00258 | 11.89055 | 28783 ft | 390 kts | 311° |
| 2026-05-07 19:18 | 53.02068 | 11.85736 | 28298 ft | 385 kts | 311° |
| 2026-05-07 19:18 | 53.03863 | 11.82442 | 27711 ft | 384 kts | 311° |
| 2026-05-07 19:18 | 53.05648 | 11.79161 | 27184 ft | 381 kts | 311° |
| 2026-05-07 19:19 | 53.07418 | 11.75912 | 26702 ft | 377 kts | 311° |
| 2026-05-07 19:19 | 53.09143 | 11.72739 | 26188 ft | 372 kts | 311° |
| 2026-05-07 19:19 | 53.10867 | 11.69563 | 25604 ft | 368 kts | 311° |
| 2026-05-07 19:19 | 53.12576 | 11.66406 | 25062 ft | 365 kts | 311° |
| 2026-05-07 19:20 | 53.14269 | 11.63271 | 24543 ft | 362 kts | 311° |
| 2026-05-07 19:20 | 53.15945 | 11.60161 | 24048 ft | 359 kts | 311° |
| 2026-05-07 19:20 | 53.17608 | 11.57068 | 23526 ft | 357 kts | 311° |
| 2026-05-07 19:20 | 53.19258 | 11.53995 | 22983 ft | 354 kts | 311° |
| 2026-05-07 19:21 | 53.20893 | 11.50948 | 22439 ft | 351 kts | 311° |
| 2026-05-07 19:21 | 53.22516 | 11.47924 | 21918 ft | 349 kts | 311° |
| 2026-05-07 19:21 | 53.24128 | 11.44914 | 21419 ft | 346 kts | 311° |
| 2026-05-07 19:21 | 53.25720 | 11.41917 | 20918 ft | 344 kts | 311° |
| 2026-05-07 19:22 | 53.27297 | 11.38928 | 20430 ft | 342 kts | 310° |
| 2026-05-07 19:22 | 53.28861 | 11.35950 | 19935 ft | 340 kts | 310° |
| 2026-05-07 19:22 | 53.30415 | 11.32980 | 19458 ft | 338 kts | 310° |
| 2026-05-07 19:22 | 53.31959 | 11.30027 | 18994 ft | 337 kts | 310° |
| 2026-05-07 19:23 | 53.33494 | 11.27083 | 18542 ft | 335 kts | 310° |
| 2026-05-07 19:23 | 53.35018 | 11.24154 | 18055 ft | 333 kts | 310° |
| 2026-05-07 19:23 | 53.36537 | 11.21240 | 17571 ft | 331 kts | 310° |
| 2026-05-07 19:23 | 53.38045 | 11.18352 | 17097 ft | 328 kts | 310° |
| 2026-05-07 19:24 | 53.39541 | 11.15486 | 16600 ft | 326 kts | 310° |
| 2026-05-07 19:24 | 53.41027 | 11.12634 | 16103 ft | 324 kts | 310° |
| 2026-05-07 19:24 | 53.42502 | 11.09797 | 15637 ft | 321 kts | 310° |
| 2026-05-07 19:24 | 53.43966 | 11.06983 | 15177 ft | 319 kts | 310° |
| 2026-05-07 19:25 | 53.45421 | 11.04182 | 14707 ft | 317 kts | 311° |
| 2026-05-07 19:25 | 53.46865 | 11.01394 | 14253 ft | 316 kts | 311° |
| 2026-05-07 19:25 | 53.48303 | 10.98616 | 13791 ft | 314 kts | 311° |
| 2026-05-07 19:25 | 53.49732 | 10.95856 | 13295 ft | 312 kts | 311° |
| 2026-05-07 19:26 | 53.51147 | 10.93116 | 12819 ft | 309 kts | 311° |
| 2026-05-07 19:26 | 53.52549 | 10.90390 | 12334 ft | 307 kts | 311° |
| 2026-05-07 19:26 | 53.53926 | 10.87715 | 11895 ft | 307 kts | 311° |
| 2026-05-07 19:26 | 53.55321 | 10.85006 | 11518 ft | 305 kts | 311° |
| 2026-05-07 19:27 | 53.56704 | 10.82314 | 11124 ft | 304 kts | 311° |
| 2026-05-07 19:27 | 53.58078 | 10.79626 | 10742 ft | 302 kts | 311° |
| 2026-05-07 19:27 | 53.59446 | 10.76950 | 10361 ft | 301 kts | 311° |
| 2026-05-07 19:27 | 53.60809 | 10.74289 | 10044 ft | 297 kts | 311° |
| 2026-05-07 19:28 | 53.62103 | 10.71583 | 9684 ft | 298 kts | 303° |
| 2026-05-07 19:28 | 53.62977 | 10.68404 | 9413 ft | 300 kts | 287° |
| 2026-05-07 19:28 | 53.63287 | 10.64942 | 9142 ft | 300 kts | 270° |
| 2026-05-07 19:28 | 53.63006 | 10.61479 | 8883 ft | 298 kts | 253° |
| 2026-05-07 19:29 | 53.62370 | 10.58151 | 8617 ft | 298 kts | 252° |
| 2026-05-07 19:29 | 53.61734 | 10.54834 | 8356 ft | 297 kts | 252° |
| 2026-05-07 19:29 | 53.61105 | 10.51530 | 8186 ft | 297 kts | 252° |
| 2026-05-07 19:29 | 53.60476 | 10.48221 | 8022 ft | 296 kts | 252° |
| 2026-05-07 19:30 | 53.59847 | 10.44917 | 7841 ft | 297 kts | 252° |
| 2026-05-07 19:30 | 53.59218 | 10.41620 | 7670 ft | 295 kts | 252° |
| 2026-05-07 19:30 | 53.58590 | 10.38336 | 7488 ft | 294 kts | 252° |
| 2026-05-07 19:30 | 53.57962 | 10.35074 | 7317 ft | 292 kts | 252° |
| 2026-05-07 19:31 | 53.57344 | 10.31858 | 7181 ft | 293 kts | 252° |
| 2026-05-07 19:31 | 53.56716 | 10.28599 | 7071 ft | 293 kts | 252° |
| 2026-05-07 19:31 | 53.56089 | 10.25340 | 6938 ft | 293 kts | 252° |
| 2026-05-07 19:31 | 53.55462 | 10.22086 | 6828 ft | 291 kts | 252° |
| 2026-05-07 19:32 | 53.54837 | 10.18857 | 6705 ft | 290 kts | 252° |
| 2026-05-07 19:32 | 53.54211 | 10.15642 | 6581 ft | 289 kts | 252° |
| 2026-05-07 19:32 | 53.53586 | 10.12434 | 6460 ft | 288 kts | 252° |
| 2026-05-07 19:32 | 53.52961 | 10.09234 | 6312 ft | 288 kts | 252° |
| 2026-05-07 19:33 | 53.52336 | 10.06037 | 6188 ft | 288 kts | 252° |
| 2026-05-07 19:33 | 53.51719 | 10.02892 | 6068 ft | 277 kts | 252° |
| 2026-05-07 19:33 | 53.51133 | 9.99896 | 5929 ft | 263 kts | 252° |
| 2026-05-07 19:33 | 53.50577 | 9.97049 | 5827 ft | 250 kts | 252° |
| 2026-05-07 19:34 | 53.49915 | 9.94397 | 5730 ft | 245 kts | 238° |
| 2026-05-07 19:34 | 53.48895 | 9.92123 | 5620 ft | 244 kts | 229° |
| 2026-05-07 19:34 | 53.47807 | 9.89948 | 5537 ft | 243 kts | 229° |
| 2026-05-07 19:34 | 53.46722 | 9.87770 | 5460 ft | 243 kts | 229° |
| 2026-05-07 19:35 | 53.45639 | 9.85594 | 5384 ft | 243 kts | 229° |
| 2026-05-07 19:35 | 53.44555 | 9.83419 | 5307 ft | 242 kts | 229° |
| 2026-05-07 19:35 | 53.43475 | 9.81249 | 5192 ft | 242 kts | 229° |
| 2026-05-07 19:35 | 53.42393 | 9.79077 | 5102 ft | 242 kts | 229° |
| 2026-05-07 19:36 | 53.41336 | 9.76955 | 5001 ft | 231 kts | 229° |
| 2026-05-07 19:36 | 53.40328 | 9.74937 | 4986 ft | 224 kts | 228° |
| 2026-05-07 19:36 | 53.39339 | 9.72962 | 4987 ft | 224 kts | 228° |
| 2026-05-07 19:36 | 53.38337 | 9.70962 | 4986 ft | 224 kts | 228° |
| 2026-05-07 19:37 | 53.37338 | 9.68964 | 4985 ft | 224 kts | 228° |
| 2026-05-07 19:37 | 53.36448 | 9.66831 | 4951 ft | 225 kts | 249° |
| 2026-05-07 19:37 | 53.36301 | 9.64255 | 4873 ft | 224 kts | 284° |
| 2026-05-07 19:37 | 53.36920 | 9.61875 | 4798 ft | 224 kts | 302° |
| 2026-05-07 19:38 | 53.37817 | 9.59762 | 4710 ft | 221 kts | 322° |
| 2026-05-07 19:38 | 53.39172 | 9.58710 | 4633 ft | 215 kts | 358° |
| 2026-05-07 19:38 | 53.40620 | 9.59042 | 4558 ft | 208 kts | 20° |
| 2026-05-07 19:38 | 53.41956 | 9.59833 | 4479 ft | 197 kts | 24° |
| 2026-05-07 19:39 | 53.43186 | 9.60619 | 4415 ft | 182 kts | 24° |
| 2026-05-07 19:39 | 53.44257 | 9.61551 | 4339 ft | 166 kts | 45° |
| 2026-05-07 19:39 | 53.45060 | 9.62896 | 4272 ft | 161 kts | 50° |
| 2026-05-07 19:39 | 53.45548 | 9.63796 | 4213 ft | 155 kts | 51° |
| 2026-05-07 19:40 | 53.46478 | 9.65590 | 4118 ft | 151 kts | 52° |
| 2026-05-07 19:40 | 53.47151 | 9.66917 | 4074 ft | 151 kts | 52° |
| 2026-05-07 19:40 | 53.47827 | 9.68261 | 4020 ft | 151 kts | 53° |
| 2026-05-07 19:40 | 53.48503 | 9.69607 | 3943 ft | 150 kts | 53° |
| 2026-05-07 19:41 | 53.49175 | 9.70949 | 3897 ft | 150 kts | 53° |
| 2026-05-07 19:41 | 53.49849 | 9.72298 | 3772 ft | 151 kts | 53° |
| 2026-05-07 19:41 | 53.50522 | 9.73644 | 3598 ft | 150 kts | 53° |
| 2026-05-07 19:41 | 53.51192 | 9.74984 | 3411 ft | 150 kts | 53° |
| 2026-05-07 19:42 | 53.51861 | 9.76325 | 3211 ft | 150 kts | 53° |
| 2026-05-07 19:42 | 53.52529 | 9.77665 | 3008 ft | 149 kts | 53° |
| 2026-05-07 19:42 | 53.53196 | 9.79000 | 2804 ft | 149 kts | 53° |
| 2026-05-07 19:42 | 53.53860 | 9.80333 | 2599 ft | 149 kts | 53° |
| 2026-05-07 19:43 | 53.54523 | 9.81664 | 2399 ft | 148 kts | 53° |
| 2026-05-07 19:43 | 53.55181 | 9.82986 | 2200 ft | 148 kts | 53° |
| 2026-05-07 19:43 | 53.55837 | 9.84305 | 1996 ft | 147 kts | 53° |
| 2026-05-07 19:43 | 53.56492 | 9.85621 | 1790 ft | 146 kts | 53° |
| 2026-05-07 19:44 | 53.56923 | 9.86489 | 1658 ft | 146 kts | 53° |
| 2026-05-07 19:44 | 53.57556 | 9.87762 | 1479 ft | 136 kts | 53° |
| 2026-05-07 19:44 | 53.58149 | 9.88954 | 1284 ft | 131 kts | 53° |
| 2026-05-07 19:44 | 53.58726 | 9.90118 | 1104 ft | 128 kts | 53° |
| 2026-05-07 19:45 | 53.59288 | 9.91251 | 924 ft | 125 kts | 52° |
| 2026-05-07 19:45 | 53.59844 | 9.92372 | 748 ft | 125 kts | 51° |
| 2026-05-07 19:45 | 53.60401 | 9.93494 | 576 ft | 125 kts | 51° |
| 2026-05-07 19:45 | 53.60955 | 9.94619 | 390 ft | 125 kts | 51° |
| 2026-05-07 19:46 | 53.61516 | 9.95745 | 223 ft | 125 kts | 51° |
| 2026-05-07 19:46 | 53.62071 | 9.96873 | 66 ft | 125 kts | 50° |
| 2026-05-07 19:46 | 53.62569 | 9.97874 | 41 ft | 78 kts | 50° |
| 2026-05-07 19:46 | 53.62773 | 9.98290 | 43 ft | 16 kts | 52° |
| 2026-05-07 19:47 | 53.62728 | 9.98378 | 44 ft | 14 kts | 149° |
| 2026-05-07 19:47 | 53.62681 | 9.98445 | 47 ft | 5 kts | 131° |
| 2026-05-07 19:47 | 53.62672 | 9.98488 | 47 ft | 3 kts | 98° |
| 2026-05-07 19:47 | 53.62683 | 9.98536 | 45 ft | 5 kts | 57° |
| 2026-05-07 19:48 | 53.62706 | 9.98584 | 47 ft | 8 kts | 51° |
| 2026-05-07 19:48 | 53.62757 | 9.98687 | 47 ft | 13 kts | 50° |
| 2026-05-07 19:48 | 53.62820 | 9.98816 | 47 ft | 16 kts | 50° |
| 2026-05-07 19:48 | 53.62895 | 9.98969 | 47 ft | 18 kts | 50° |
| 2026-05-07 19:49 | 53.62981 | 9.99142 | 47 ft | 21 kts | 50° |
| 2026-05-07 19:49 | 53.63071 | 9.99333 | 47 ft | 20 kts | 56° |
| 2026-05-07 19:49 | 53.63156 | 9.99540 | 46 ft | 22 kts | 53° |
| 2026-05-07 19:49 | 53.63229 | 9.99685 | 48 ft | 8 kts | 48° |
| 2026-05-07 19:50 | 53.63233 | 9.99692 | 48 ft | 0 kts | 44° |
| 2026-05-07 19:50 | 53.63234 | 9.99693 | 48 ft | 1 kts | 45° |
| 2026-05-07 19:50 | 53.63210 | 9.99772 | 48 ft | 17 kts | 142° |
| 2026-05-07 19:50 | 53.63120 | 9.99854 | 47 ft | 10 kts | 145° |
| 2026-05-07 19:51 | 53.63134 | 9.99947 | 47 ft | 9 kts | 52° |
| 2026-05-07 19:51 | 53.63176 | 10.00028 | 48 ft | 10 kts | 50° |
| 2026-05-07 19:51 | 53.63223 | 10.00122 | 48 ft | 11 kts | 50° |
| 2026-05-07 19:51 | 53.63244 | 10.00223 | 48 ft | 6 kts | 104° |
| 2026-05-07 19:52 | 53.63242 | 10.00286 | 48 ft | 5 kts | 86° |
| 2026-05-07 19:52 | 53.63244 | 10.00327 | 48 ft | 0 kts | 86° |
| 2026-05-07 19:52 | 53.63244 | 10.00341 | 48 ft | 1 kts | 86° |
| 2026-05-07 19:52 | 53.63245 | 10.00356 | 48 ft | 0 kts | 86° |
| 2026-05-07 19:53 | 53.63245 | 10.00359 | 48 ft | 0 kts | 86° |